sensor_id;sensor_type;location;lat;lon;timestamp;pressure;altitude;pressure_sealevel;temperature;humidity
26531;BME280;14201;43.188;24.160;2023-05-11T00:00:01;99893.16;;;14.18;87.17
26531;BME280;14201;43.188;24.160;2023-05-11T00:02:27;99883.44;;;14.14;87.74
26531;BME280;14201;43.188;24.160;2023-05-11T00:04:52;99893.59;;;14.05;88.27
26531;BME280;14201;43.188;24.160;2023-05-11T00:07:18;99885.16;;;14.14;87.51
26531;BME280;14201;43.188;24.160;2023-05-11T00:09:43;99883.38;;;14.13;87.36
26531;BME280;14201;43.188;24.160;2023-05-11T00:12:09;99888.66;;;14.14;87.90
26531;BME280;14201;43.188;24.160;2023-05-11T00:14:34;99888.66;;;14.14;87.52
26531;BME280;14201;43.188;24.160;2023-05-11T00:17:00;99884.28;;;14.13;87.29
26531;BME280;14201;43.188;24.160;2023-05-11T00:19:25;99893.16;;;14.18;87.34
26531;BME280;14201;43.188;24.160;2023-05-11T00:21:51;99895.69;;;14.15;87.60
26531;BME280;14201;43.188;24.160;2023-05-11T00:24:17;99875.69;;;14.17;88.23
26531;BME280;14201;43.188;24.160;2023-05-11T00:26:42;99882.56;;;14.14;88.56
26531;BME280;14201;43.188;24.160;2023-05-11T00:29:08;99883.53;;;14.17;88.07
26531;BME280;14201;43.188;24.160;2023-05-11T00:31:33;99878.31;;;14.17;87.23
26531;BME280;14201;43.188;24.160;2023-05-11T00:33:59;99886.28;;;14.22;86.46
26531;BME280;14201;43.188;24.160;2023-05-11T00:36:24;99878.25;;;14.16;87.02
26531;BME280;14201;43.188;24.160;2023-05-11T00:38:49;99883.44;;;14.14;87.41
26531;BME280;14201;43.188;24.160;2023-05-11T00:41:16;99881.75;;;14.16;87.21
26531;BME280;14201;43.188;24.160;2023-05-11T00:43:42;99874.06;;;14.21;86.70
26531;BME280;14201;43.188;24.160;2023-05-11T00:46:07;99886.06;;;14.14;86.65
26531;BME280;14201;43.188;24.160;2023-05-11T00:48:33;99882.59;;;14.15;86.52
26531;BME280;14201;43.188;24.160;2023-05-11T00:50:58;99886.50;;;14.01;86.65
26531;BME280;14201;43.188;24.160;2023-05-11T00:53:24;99890.09;;;14.05;86.61
26531;BME280;14201;43.188;24.160;2023-05-11T00:55:49;99884.78;;;14.02;87.16
26531;BME280;14201;43.188;24.160;2023-05-11T00:58:15;99888.53;;;14.10;86.88
26531;BME280;14201;43.188;24.160;2023-05-11T01:00:41;99885.97;;;14.11;86.20
26531;BME280;14201;43.188;24.160;2023-05-11T01:03:06;99882.13;;;14.00;86.79
26531;BME280;14201;43.188;24.160;2023-05-11T01:15:32;99884.31;;;13.88;87.81
26531;BME280;14201;43.188;24.160;2023-05-11T01:18:23;99878.94;;;13.83;88.44
26531;BME280;14201;43.188;24.160;2023-05-11T01:20:52;99873.69;;;13.83;88.32
26531;BME280;14201;43.188;24.160;2023-05-11T01:26:07;99883.13;;;13.78;88.70
26531;BME280;14201;43.188;24.160;2023-05-11T01:31:15;99888.97;;;13.69;88.79
26531;BME280;14201;43.188;24.160;2023-05-11T01:33:46;99882.66;;;13.38;90.15
26531;BME280;14201;43.188;24.160;2023-05-11T01:36:14;99887.84;;;13.13;92.67
26531;BME280;14201;43.188;24.160;2023-05-11T01:38:41;99881.69;;;13.12;92.88
26531;BME280;14201;43.188;24.160;2023-05-11T01:41:16;99884.44;;;13.15;93.20
26531;BME280;14201;43.188;24.160;2023-05-11T01:43:43;99884.47;;;12.93;94.14
26531;BME280;14201;43.188;24.160;2023-05-11T01:46:09;99881.00;;;13.16;93.47
26531;BME280;14201;43.188;24.160;2023-05-11T01:48:41;99890.56;;;13.40;91.63
26531;BME280;14201;43.188;24.160;2023-05-11T01:51:08;99888.97;;;13.44;90.86
26531;BME280;14201;43.188;24.160;2023-05-11T01:53:35;99894.13;;;13.42;91.08
26531;BME280;14201;43.188;24.160;2023-05-11T01:56:01;99894.34;;;13.48;90.62
26531;BME280;14201;43.188;24.160;2023-05-11T01:58:28;99891.56;;;13.44;90.98
26531;BME280;14201;43.188;24.160;2023-05-11T02:00:54;99886.59;;;13.51;90.33
26531;BME280;14201;43.188;24.160;2023-05-11T02:03:20;99894.00;;;13.39;91.48
26531;BME280;14201;43.188;24.160;2023-05-11T02:05:47;99885.34;;;13.40;90.93
26531;BME280;14201;43.188;24.160;2023-05-11T02:08:13;99886.44;;;13.47;90.18
26531;BME280;14201;43.188;24.160;2023-05-11T02:10:39;99892.03;;;13.57;89.29
26531;BME280;14201;43.188;24.160;2023-05-11T02:13:05;99884.81;;;13.50;89.98
26531;BME280;14201;43.188;24.160;2023-05-11T02:15:32;99892.06;;;13.33;89.90
26531;BME280;14201;43.188;24.160;2023-05-11T02:17:58;99890.25;;;13.31;90.67
26531;BME280;14201;43.188;24.160;2023-05-11T02:20:24;99890.31;;;13.32;90.65
26531;BME280;14201;43.188;24.160;2023-05-11T02:22:49;99890.44;;;13.37;90.36
26531;BME280;14201;43.188;24.160;2023-05-11T02:25:17;99884.34;;;13.36;89.88
26531;BME280;14201;43.188;24.160;2023-05-11T02:27:43;99881.78;;;13.38;90.19
26531;BME280;14201;43.188;24.160;2023-05-11T02:30:08;99888.03;;;13.42;90.35
26531;BME280;14201;43.188;24.160;2023-05-11T02:32:34;99878.91;;;13.30;91.31
26531;BME280;14201;43.188;24.160;2023-05-11T02:35:06;99886.09;;;13.37;90.85
26531;BME280;14201;43.188;24.160;2023-05-11T02:37:34;99877.44;;;13.38;91.20
26531;BME280;14201;43.188;24.160;2023-05-11T02:40:04;99880.16;;;13.42;90.49
26531;BME280;14201;43.188;24.160;2023-05-11T02:42:35;99887.91;;;13.38;90.61
26531;BME280;14201;43.188;24.160;2023-05-11T02:45:03;99880.47;;;13.51;90.01
26531;BME280;14201;43.188;24.160;2023-05-11T02:47:31;99878.78;;;13.53;88.94
26531;BME280;14201;43.188;24.160;2023-05-11T02:49:57;99879.09;;;13.36;90.01
26531;BME280;14201;43.188;24.160;2023-05-11T02:52:25;99885.44;;;13.43;89.34
26531;BME280;14201;43.188;24.160;2023-05-11T02:54:52;99888.97;;;13.44;89.54
26531;BME280;14201;43.188;24.160;2023-05-11T02:57:19;99891.72;;;13.48;89.51
26531;BME280;14201;43.188;24.160;2023-05-11T02:59:45;99896.69;;;13.41;89.72
26531;BME280;14201;43.188;24.160;2023-05-11T03:02:10;99889.78;;;13.18;91.07
26531;BME280;14201;43.188;24.160;2023-05-11T03:04:37;99899.03;;;13.09;92.18
26531;BME280;14201;43.188;24.160;2023-05-11T03:07:02;99891.84;;;13.03;92.42
26531;BME280;14201;43.188;24.160;2023-05-11T03:09:28;99900.56;;;13.04;92.18
26531;BME280;14201;43.188;24.160;2023-05-11T03:11:53;99902.75;;;13.15;91.94
26531;BME280;14201;43.188;24.160;2023-05-11T03:14:19;99906.88;;;13.09;91.90
26531;BME280;14201;43.188;24.160;2023-05-11T03:16:45;99904.19;;;13.07;91.87
26531;BME280;14201;43.188;24.160;2023-05-11T03:19:11;99899.31;;;13.16;91.49
26531;BME280;14201;43.188;24.160;2023-05-11T03:21:37;99908.25;;;13.23;91.06
26531;BME280;14201;43.188;24.160;2023-05-11T03:24:04;99902.22;;;13.26;91.16
26531;BME280;14201;43.188;24.160;2023-05-11T03:26:30;99908.31;;;13.25;90.99
26531;BME280;14201;43.188;24.160;2023-05-11T03:28:57;99904.47;;;13.15;90.72
26531;BME280;14201;43.188;24.160;2023-05-11T03:31:24;99904.56;;;13.18;90.86
26531;BME280;14201;43.188;24.160;2023-05-11T03:33:49;99902.91;;;13.20;90.56
26531;BME280;14201;43.188;24.160;2023-05-11T03:36:15;99900.47;;;13.25;90.36
26531;BME280;14201;43.188;24.160;2023-05-11T03:38:41;99904.22;;;13.31;89.52
26531;BME280;14201;43.188;24.160;2023-05-11T03:41:09;99904.03;;;13.27;89.28
26531;BME280;14201;43.188;24.160;2023-05-11T03:43:35;99912.06;;;13.31;88.74
26531;BME280;14201;43.188;24.160;2023-05-11T03:46:02;99917.41;;;13.34;89.21
26531;BME280;14201;43.188;24.160;2023-05-11T03:48:28;99909.50;;;13.33;89.22
26531;BME280;14201;43.188;24.160;2023-05-11T03:50:54;99915.59;;;13.32;89.66
26531;BME280;14201;43.188;24.160;2023-05-11T03:53:20;99912.28;;;13.37;89.57
26531;BME280;14201;43.188;24.160;2023-05-11T03:55:45;99911.50;;;13.40;89.37
26531;BME280;14201;43.188;24.160;2023-05-11T03:58:11;99919.22;;;13.37;89.50
26531;BME280;14201;43.188;24.160;2023-05-11T04:00:39;99914.56;;;13.28;90.22
26531;BME280;14201;43.188;24.160;2023-05-11T04:03:05;99913.59;;;13.26;89.81
26531;BME280;14201;43.188;24.160;2023-05-11T04:05:31;99909.91;;;13.21;90.72
26531;BME280;14201;43.188;24.160;2023-05-11T04:07:56;99919.59;;;13.24;91.37
26531;BME280;14201;43.188;24.160;2023-05-11T04:10:22;99923.28;;;13.29;91.31
26531;BME280;14201;43.188;24.160;2023-05-11T04:12:47;99916.47;;;13.32;90.76
26531;BME280;14201;43.188;24.160;2023-05-11T04:15:13;99921.69;;;13.32;90.82
26531;BME280;14201;43.188;24.160;2023-05-11T04:17:38;99917.50;;;13.37;91.07
26531;BME280;14201;43.188;24.160;2023-05-11T04:20:04;99910.56;;;13.38;90.79
26531;BME280;14201;43.188;24.160;2023-05-11T04:22:29;99913.19;;;13.38;89.97
26531;BME280;14201;43.188;24.160;2023-05-11T04:24:55;99922.91;;;13.42;89.58
26531;BME280;14201;43.188;24.160;2023-05-11T04:27:20;99917.84;;;13.47;89.85
26531;BME280;14201;43.188;24.160;2023-05-11T04:29:46;99922.19;;;13.46;90.15
26531;BME280;14201;43.188;24.160;2023-05-11T04:32:12;99926.53;;;13.46;90.75
26531;BME280;14201;43.188;24.160;2023-05-11T04:34:38;99925.06;;;13.54;91.60
26531;BME280;14201;43.188;24.160;2023-05-11T04:37:04;99920.91;;;13.59;90.60
26531;BME280;14201;43.188;24.160;2023-05-11T04:39:31;99926.84;;;13.55;91.11
26531;BME280;14201;43.188;24.160;2023-05-11T04:41:58;99928.28;;;13.71;90.20
26531;BME280;14201;43.188;24.160;2023-05-11T04:44:23;99928.22;;;13.69;89.82
26531;BME280;14201;43.188;24.160;2023-05-11T04:46:49;99934.66;;;13.79;87.67
26531;BME280;14201;43.188;24.160;2023-05-11T04:49:20;99936.69;;;13.88;88.30
26531;BME280;14201;43.188;24.160;2023-05-11T04:51:46;99941.91;;;13.88;87.74
26531;BME280;14201;43.188;24.160;2023-05-11T04:54:11;99933.25;;;13.89;85.41
26531;BME280;14201;43.188;24.160;2023-05-11T04:56:36;99933.97;;;13.85;87.02
26531;BME280;14201;43.188;24.160;2023-05-11T04:59:05;99940.03;;;13.84;87.94
26531;BME280;14201;43.188;24.160;2023-05-11T05:01:31;99937.34;;;13.81;89.86
26531;BME280;14201;43.188;24.160;2023-05-11T05:03:56;99938.47;;;13.89;89.43
26531;BME280;14201;43.188;24.160;2023-05-11T05:06:21;99938.63;;;13.93;88.54
26531;BME280;14201;43.188;24.160;2023-05-11T05:08:47;99939.53;;;13.94;88.08
26531;BME280;14201;43.188;24.160;2023-05-11T05:11:13;99938.47;;;13.89;88.19
26531;BME280;14201;43.188;24.160;2023-05-11T05:13:39;99947.38;;;13.94;88.64
26531;BME280;14201;43.188;24.160;2023-05-11T05:16:05;99947.88;;;14.09;87.91
26531;BME280;14201;43.188;24.160;2023-05-11T05:18:30;99946.31;;;14.14;87.11
26531;BME280;14201;43.188;24.160;2023-05-11T05:20:56;99948.19;;;14.18;87.58
26531;BME280;14201;43.188;24.160;2023-05-11T05:23:21;99947.69;;;14.30;87.56
26531;BME280;14201;43.188;24.160;2023-05-11T05:25:46;99942.81;;;14.41;87.18
26531;BME280;14201;43.188;24.160;2023-05-11T05:28:12;99948.34;;;14.52;86.16
26531;BME280;14201;43.188;24.160;2023-05-11T05:30:37;99953.00;;;14.59;84.78
26531;BME280;14201;43.188;24.160;2023-05-11T05:33:02;99953.41;;;14.71;81.06
26531;BME280;14201;43.188;24.160;2023-05-11T05:35:28;99951.88;;;14.80;81.00
26531;BME280;14201;43.188;24.160;2023-05-11T05:37:53;99959.19;;;14.90;79.27
26531;BME280;14201;43.188;24.160;2023-05-11T05:40:19;99958.31;;;14.89;78.87
26531;BME280;14201;43.188;24.160;2023-05-11T05:42:45;99955.19;;;15.03;77.37
26531;BME280;14201;43.188;24.160;2023-05-11T05:45:11;99954.25;;;15.01;78.30
26531;BME280;14201;43.188;24.160;2023-05-11T05:47:36;99953.81;;;15.15;77.39
26531;BME280;14201;43.188;24.160;2023-05-11T05:50:02;99957.72;;;15.30;76.64
26531;BME280;14201;43.188;24.160;2023-05-11T05:52:27;99955.31;;;15.38;76.81
26531;BME280;14201;43.188;24.160;2023-05-11T05:54:53;99959.03;;;15.46;76.07
26531;BME280;14201;43.188;24.160;2023-05-11T05:57:18;99957.59;;;15.57;75.86
26531;BME280;14201;43.188;24.160;2023-05-11T05:59:44;99956.06;;;15.65;76.33
26531;BME280;14201;43.188;24.160;2023-05-11T06:02:09;99955.53;;;15.77;75.96
26531;BME280;14201;43.188;24.160;2023-05-11T06:04:37;99960.94;;;15.83;74.99
26531;BME280;14201;43.188;24.160;2023-05-11T06:07:02;99962.00;;;15.90;74.95
26531;BME280;14201;43.188;24.160;2023-05-11T06:09:28;99965.78;;;16.01;74.38
26531;BME280;14201;43.188;24.160;2023-05-11T06:11:53;99973.31;;;16.21;72.26
26531;BME280;14201;43.188;24.160;2023-05-11T06:14:18;99971.59;;;16.23;72.47
26531;BME280;14201;43.188;24.160;2023-05-11T06:16:44;99966.72;;;16.38;69.03
26531;BME280;14201;43.188;24.160;2023-05-11T06:19:09;99972.94;;;16.43;69.17
26531;BME280;14201;43.188;24.160;2023-05-11T06:21:35;99972.91;;;16.42;71.04
26531;BME280;14201;43.188;24.160;2023-05-11T06:24:00;99966.00;;;16.45;72.36
26531;BME280;14201;43.188;24.160;2023-05-11T06:26:26;99967.13;;;16.57;72.19
26531;BME280;14201;43.188;24.160;2023-05-11T06:28:52;99975.66;;;16.83;70.51
26531;BME280;14201;43.188;24.160;2023-05-11T06:31:18;99971.50;;;16.94;68.87
26531;BME280;14201;43.188;24.160;2023-05-11T06:33:43;99977.69;;;16.95;68.98
26531;BME280;14201;43.188;24.160;2023-05-11T06:36:09;99976.94;;;17.02;68.63
26531;BME280;14201;43.188;24.160;2023-05-11T06:38:36;99982.34;;;17.08;67.11
26531;BME280;14201;43.188;24.160;2023-05-11T06:41:01;99978.84;;;17.09;66.39
26531;BME280;14201;43.188;24.160;2023-05-11T06:43:26;99976.16;;;16.68;66.83
26531;BME280;14201;43.188;24.160;2023-05-11T06:45:52;99977.56;;;16.90;67.56
26531;BME280;14201;43.188;24.160;2023-05-11T06:48:17;99981.84;;;16.86;66.42
26531;BME280;14201;43.188;24.160;2023-05-11T06:50:43;99980.19;;;16.90;66.36
26531;BME280;14201;43.188;24.160;2023-05-11T06:53:09;99981.34;;;17.03;68.61
26531;BME280;14201;43.188;24.160;2023-05-11T06:55:35;99981.63;;;17.15;68.51
26531;BME280;14201;43.188;24.160;2023-05-11T06:58:00;99980.09;;;17.26;68.88
26531;BME280;14201;43.188;24.160;2023-05-11T07:00:26;99983.16;;;17.48;67.70
26531;BME280;14201;43.188;24.160;2023-05-11T07:02:51;99981.72;;;17.62;66.92
26531;BME280;14201;43.188;24.160;2023-05-11T07:05:17;99977.94;;;17.95;65.02
26531;BME280;14201;43.188;24.160;2023-05-11T07:07:42;99984.78;;;17.84;62.85
26531;BME280;14201;43.188;24.160;2023-05-11T07:10:08;99982.88;;;17.78;63.13
26531;BME280;14201;43.188;24.160;2023-05-11T07:12:33;99987.13;;;17.70;65.54
26531;BME280;14201;43.188;24.160;2023-05-11T07:14:58;99982.94;;;17.83;65.14
26531;BME280;14201;43.188;24.160;2023-05-11T07:17:24;99985.78;;;17.92;66.03
26531;BME280;14201;43.188;24.160;2023-05-11T07:19:49;99987.81;;;18.08;65.30
26531;BME280;14201;43.188;24.160;2023-05-11T07:22:19;99989.81;;;18.22;65.13
26531;BME280;14201;43.188;24.160;2023-05-11T07:24:44;99984.03;;;18.44;64.06
26531;BME280;14201;43.188;24.160;2023-05-11T07:27:10;99992.16;;;18.58;62.60
26531;BME280;14201;43.188;24.160;2023-05-11T07:29:36;99988.09;;;18.79;62.24
26531;BME280;14201;43.188;24.160;2023-05-11T07:32:02;99992.72;;;18.94;61.86
26531;BME280;14201;43.188;24.160;2023-05-11T07:34:27;99992.09;;;19.12;61.30
26531;BME280;14201;43.188;24.160;2023-05-11T07:36:53;99994.91;;;19.25;59.84
26531;BME280;14201;43.188;24.160;2023-05-11T07:39:19;99999.56;;;19.45;59.16
26531;BME280;14201;43.188;24.160;2023-05-11T07:41:44;99996.25;;;19.64;57.82
26531;BME280;14201;43.188;24.160;2023-05-11T07:44:09;99992.13;;;19.88;56.84
26531;BME280;14201;43.188;24.160;2023-05-11T07:46:35;99996.69;;;20.04;57.44
26531;BME280;14201;43.188;24.160;2023-05-11T07:49:01;99992.03;;;19.79;52.36
26531;BME280;14201;43.188;24.160;2023-05-11T07:51:26;99993.94;;;19.94;54.21
26531;BME280;14201;43.188;24.160;2023-05-11T07:53:52;99997.66;;;20.11;54.24
26531;BME280;14201;43.188;24.160;2023-05-11T07:56:17;100000.44;;;20.26;51.63
26531;BME280;14201;43.188;24.160;2023-05-11T07:58:43;100001.44;;;20.42;51.69
26531;BME280;14201;43.188;24.160;2023-05-11T08:01:09;100003.34;;;20.59;52.11
26531;BME280;14201;43.188;24.160;2023-05-11T08:03:34;100004.38;;;20.76;52.22
26531;BME280;14201;43.188;24.160;2023-05-11T08:06:00;100004.50;;;20.96;49.08
26531;BME280;14201;43.188;24.160;2023-05-11T08:08:25;100001.97;;;21.18;51.66
26531;BME280;14201;43.188;24.160;2023-05-11T08:10:51;100002.84;;;21.14;51.61
26531;BME280;14201;43.188;24.160;2023-05-11T08:13:17;100006.47;;;21.37;49.82
26531;BME280;14201;43.188;24.160;2023-05-11T08:15:42;100007.47;;;21.59;51.57
26531;BME280;14201;43.188;24.160;2023-05-11T08:18:08;99998.69;;;21.82;50.52
26531;BME280;14201;43.188;24.160;2023-05-11T08:20:33;100001.41;;;22.08;47.82
26531;BME280;14201;43.188;24.160;2023-05-11T08:22:59;100003.19;;;22.18;44.94
26531;BME280;14201;43.188;24.160;2023-05-11T08:25:25;99991.66;;;22.09;45.64
26531;BME280;14201;43.188;24.160;2023-05-11T08:27:50;99992.53;;;22.06;46.53
26531;BME280;14201;43.188;24.160;2023-05-11T08:30:15;99992.50;;;21.88;44.94
26531;BME280;14201;43.188;24.160;2023-05-11T08:32:42;99995.88;;;21.42;44.98
26531;BME280;14201;43.188;24.160;2023-05-11T08:35:08;99991.53;;;21.50;45.23
26531;BME280;14201;43.188;24.160;2023-05-11T08:37:33;99989.81;;;21.65;46.77
26531;BME280;14201;43.188;24.160;2023-05-11T08:39:59;99984.53;;;21.77;48.24
26531;BME280;14201;43.188;24.160;2023-05-11T08:42:25;99982.81;;;21.91;47.47
26531;BME280;14201;43.188;24.160;2023-05-11T08:44:53;99989.91;;;22.05;47.05
26531;BME280;14201;43.188;24.160;2023-05-11T08:47:19;99988.06;;;21.76;44.48
26531;BME280;14201;43.188;24.160;2023-05-11T08:49:45;99993.16;;;21.23;45.53
26531;BME280;14201;43.188;24.160;2023-05-11T08:52:11;99977.25;;;21.27;47.45
26531;BME280;14201;43.188;24.160;2023-05-11T08:54:38;99977.34;;;21.40;47.64
26531;BME280;14201;43.188;24.160;2023-05-11T08:57:03;99981.00;;;21.72;50.25
26531;BME280;14201;43.188;24.160;2023-05-11T08:59:31;99981.03;;;21.86;45.98
26531;BME280;14201;43.188;24.160;2023-05-11T09:01:58;99982.81;;;22.05;47.20
26531;BME280;14201;43.188;24.160;2023-05-11T09:04:23;99977.53;;;22.40;46.77
26531;BME280;14201;43.188;24.160;2023-05-11T09:06:50;99975.72;;;22.73;47.36
26531;BME280;14201;43.188;24.160;2023-05-11T09:09:16;99981.94;;;22.78;42.61
26531;BME280;14201;43.188;24.160;2023-05-11T09:11:43;99967.72;;;22.95;46.38
26531;BME280;14201;43.188;24.160;2023-05-11T09:14:09;99976.56;;;23.00;41.83
26531;BME280;14201;43.188;24.160;2023-05-11T09:16:34;99978.38;;;22.81;44.05
26531;BME280;14201;43.188;24.160;2023-05-11T09:19:00;99976.56;;;22.91;45.17
26531;BME280;14201;43.188;24.160;2023-05-11T09:21:29;99973.06;;;22.84;46.09
26531;BME280;14201;43.188;24.160;2023-05-11T09:23:55;99974.00;;;22.61;45.33
26531;BME280;14201;43.188;24.160;2023-05-11T09:26:24;99983.69;;;22.21;46.17
26531;BME280;14201;43.188;24.160;2023-05-11T09:28:56;99984.56;;;22.01;45.38
26531;BME280;14201;43.188;24.160;2023-05-11T09:36:35;99962.47;;;21.93;41.26
26531;BME280;14201;43.188;24.160;2023-05-11T09:39:01;99966.91;;;22.07;41.70
26531;BME280;14201;43.188;24.160;2023-05-11T09:41:26;99972.22;;;22.00;41.40
26531;BME280;14201;43.188;24.160;2023-05-11T09:43:52;99968.59;;;21.63;41.62
26531;BME280;14201;43.188;24.160;2023-05-11T09:46:20;99965.00;;;21.47;40.63
26531;BME280;14201;43.188;24.160;2023-05-11T09:48:45;99963.34;;;22.08;43.19
26531;BME280;14201;43.188;24.160;2023-05-11T09:51:27;99949.22;;;22.52;39.40
26531;BME280;14201;43.188;24.160;2023-05-11T09:53:53;99951.00;;;22.28;39.14
26531;BME280;14201;43.188;24.160;2023-05-11T09:56:19;99944.81;;;22.49;41.27
26531;BME280;14201;43.188;24.160;2023-05-11T09:58:49;99937.59;;;22.93;40.34
26531;BME280;14201;43.188;24.160;2023-05-11T10:01:16;99932.16;;;23.28;40.68
26531;BME280;14201;43.188;24.160;2023-05-11T10:03:45;99935.63;;;23.50;41.71
26531;BME280;14201;43.188;24.160;2023-05-11T10:06:10;99928.34;;;23.82;44.52
26531;BME280;14201;43.188;24.160;2023-05-11T10:08:36;99925.47;;;24.09;41.15
26531;BME280;14201;43.188;24.160;2023-05-11T10:11:01;99921.94;;;24.09;38.71
26531;BME280;14201;43.188;24.160;2023-05-11T10:13:28;99909.66;;;23.89;39.01
26531;BME280;14201;43.188;24.160;2023-05-11T10:15:54;99915.59;;;24.22;38.85
26531;BME280;14201;43.188;24.160;2023-05-11T10:18:22;99914.25;;;23.66;37.70
26531;BME280;14201;43.188;24.160;2023-05-11T10:20:47;99910.84;;;23.42;38.50
26531;BME280;14201;43.188;24.160;2023-05-11T10:23:13;99904.63;;;23.46;40.51
26531;BME280;14201;43.188;24.160;2023-05-11T10:25:39;99908.06;;;23.61;38.97
26531;BME280;14201;43.188;24.160;2023-05-11T10:28:05;99909.91;;;23.55;38.52
26531;BME280;14201;43.188;24.160;2023-05-11T10:30:31;99906.31;;;23.59;38.17
26531;BME280;14201;43.188;24.160;2023-05-11T10:32:57;99912.78;;;23.06;39.10
26531;BME280;14201;43.188;24.160;2023-05-11T10:35:24;99911.19;;;22.33;41.17
26531;BME280;14201;43.188;24.160;2023-05-11T10:37:50;99902.34;;;21.89;41.85
26531;BME280;14201;43.188;24.160;2023-05-11T10:40:16;99897.03;;;21.83;42.74
26531;BME280;14201;43.188;24.160;2023-05-11T10:45:28;99905.00;;;22.01;42.04
26531;BME280;14201;43.188;24.160;2023-05-11T10:56:54;99902.31;;;22.14;40.63
26531;BME280;14201;43.188;24.160;2023-05-11T11:03:56;99890.84;;;21.84;40.75
26531;BME280;14201;43.188;24.160;2023-05-11T11:06:22;99881.13;;;21.83;40.48
26531;BME280;14201;43.188;24.160;2023-05-11T11:08:54;99884.63;;;22.10;43.79
26531;BME280;14201;43.188;24.160;2023-05-11T11:11:36;99884.59;;;22.56;42.24
26531;BME280;14201;43.188;24.160;2023-05-11T11:14:03;99886.25;;;22.91;43.75
26531;BME280;14201;43.188;24.160;2023-05-11T11:16:32;99883.66;;;22.74;42.29
26531;BME280;14201;43.188;24.160;2023-05-11T11:21:42;99883.41;;;23.37;38.61
26531;BME280;14201;43.188;24.160;2023-05-11T11:24:11;99869.38;;;23.13;40.81
26531;BME280;14201;43.188;24.160;2023-05-11T11:26:54;99878.38;;;22.69;42.43
26531;BME280;14201;43.188;24.160;2023-05-11T11:29:20;99864.31;;;21.90;42.99
26531;BME280;14201;43.188;24.160;2023-05-11T11:31:45;99867.84;;;22.29;43.69
26531;BME280;14201;43.188;24.160;2023-05-11T11:39:25;99858.72;;;23.15;40.20
26531;BME280;14201;43.188;24.160;2023-05-11T11:44:28;99854.19;;;23.31;40.78
26531;BME280;14201;43.188;24.160;2023-05-11T11:49:39;99859.41;;;23.48;39.64
26531;BME280;14201;43.188;24.160;2023-05-11T11:52:04;99855.78;;;23.58;39.39
26531;BME280;14201;43.188;24.160;2023-05-11T11:54:39;99858.19;;;23.90;38.29
26531;BME280;14201;43.188;24.160;2023-05-11T11:57:35;99850.94;;;24.12;37.46
26531;BME280;14201;43.188;24.160;2023-05-11T11:59:50;99849.19;;;24.08;36.89
26531;BME280;14201;43.188;24.160;2023-05-11T12:02:17;99847.81;;;23.59;37.25
26531;BME280;14201;43.188;24.160;2023-05-11T12:04:45;99853.47;;;23.07;38.85
26531;BME280;14201;43.188;24.160;2023-05-11T12:07:15;99850.13;;;22.40;39.15
26531;BME280;14201;43.188;24.160;2023-05-11T12:09:44;99850.91;;;22.72;38.69
26531;BME280;14201;43.188;24.160;2023-05-11T12:12:09;99839.47;;;22.57;38.95
26531;BME280;14201;43.188;24.160;2023-05-11T12:14:35;99838.50;;;22.75;38.23
26531;BME280;14201;43.188;24.160;2023-05-11T12:17:07;99837.47;;;23.01;38.69
26531;BME280;14201;43.188;24.160;2023-05-11T12:19:37;99828.44;;;23.36;40.59
26531;BME280;14201;43.188;24.160;2023-05-11T12:22:03;99828.66;;;22.99;38.00
26531;BME280;14201;43.188;24.160;2023-05-11T12:24:28;99828.63;;;23.11;37.77
26531;BME280;14201;43.188;24.160;2023-05-11T12:26:54;99816.06;;;23.35;40.41
26531;BME280;14201;43.188;24.160;2023-05-11T12:29:20;99825.56;;;23.67;38.27
26531;BME280;14201;43.188;24.160;2023-05-11T12:31:46;99825.47;;;23.85;39.17
26531;BME280;14201;43.188;24.160;2023-05-11T12:34:20;99822.97;;;23.61;38.97
26531;BME280;14201;43.188;24.160;2023-05-11T12:36:47;99822.84;;;23.76;37.80
26531;BME280;14201;43.188;24.160;2023-05-11T12:39:31;99820.28;;;23.65;38.02
26531;BME280;14201;43.188;24.160;2023-05-11T12:41:56;99806.34;;;23.31;38.07
26531;BME280;14201;43.188;24.160;2023-05-11T12:44:23;99806.41;;;23.25;40.67
26531;BME280;14201;43.188;24.160;2023-05-11T12:46:49;99801.84;;;23.37;37.38
26531;BME280;14201;43.188;24.160;2023-05-11T12:49:18;99798.53;;;22.98;38.42
26531;BME280;14201;43.188;24.160;2023-05-11T12:51:45;99801.50;;;22.35;39.90
26531;BME280;14201;43.188;24.160;2023-05-11T12:54:11;99793.56;;;22.01;38.96
26531;BME280;14201;43.188;24.160;2023-05-11T12:56:46;99791.84;;;21.76;39.93
26531;BME280;14201;43.188;24.160;2023-05-11T12:59:29;99790.09;;;21.50;41.01
26531;BME280;14201;43.188;24.160;2023-05-11T13:02:03;99785.66;;;21.54;40.34
26531;BME280;14201;43.188;24.160;2023-05-11T13:04:29;99787.44;;;21.58;39.84
26531;BME280;14201;43.188;24.160;2023-05-11T13:06:55;99773.25;;;21.91;39.41
26531;BME280;14201;43.188;24.160;2023-05-11T13:09:23;99782.03;;;22.13;38.93
26531;BME280;14201;43.188;24.160;2023-05-11T13:11:49;99772.22;;;22.57;39.41
26531;BME280;14201;43.188;24.160;2023-05-11T13:14:30;99758.78;;;22.81;38.48
26531;BME280;14201;43.188;24.160;2023-05-11T13:16:56;99758.94;;;22.52;37.58
26531;BME280;14201;43.188;24.160;2023-05-11T13:19:28;99760.84;;;22.09;36.71
26531;BME280;14201;43.188;24.160;2023-05-11T13:21:54;99764.41;;;21.98;37.25
26531;BME280;14201;43.188;24.160;2023-05-11T13:24:20;99763.44;;;22.39;37.84
26531;BME280;14201;43.188;24.160;2023-05-11T13:26:46;99749.16;;;22.65;38.55
26531;BME280;14201;43.188;24.160;2023-05-11T13:29:11;99757.13;;;22.65;37.85
26531;BME280;14201;43.188;24.160;2023-05-11T13:31:41;99756.34;;;22.38;37.72
26531;BME280;14201;43.188;24.160;2023-05-11T13:34:06;99751.84;;;22.56;37.03
26531;BME280;14201;43.188;24.160;2023-05-11T13:36:32;99759.94;;;22.16;38.93